createdAt,value
2022-12-04T00:00:52.087Z,951.76
2022-12-04T00:01:52.028Z,951.77
2022-12-04T00:02:52.015Z,951.74
2022-12-04T00:03:52.095Z,951.81
2022-12-04T00:04:52.001Z,951.83
2022-12-04T00:05:52.071Z,951.88
2022-12-04T00:06:58.500Z,951.90
2022-12-04T00:07:52.936Z,951.89
2022-12-04T00:08:51.958Z,951.87
2022-12-04T00:09:52.123Z,951.83
2022-12-04T00:10:51.896Z,951.82
2022-12-04T00:11:52.002Z,951.86
2022-12-04T00:12:51.849Z,951.93
2022-12-04T00:13:51.855Z,951.92
2022-12-04T00:15:24.013Z,951.93
2022-12-04T00:15:52.845Z,951.89
2022-12-04T00:16:51.938Z,951.82
2022-12-04T00:17:52.036Z,951.81
2022-12-04T00:18:51.744Z,951.81
2022-12-04T00:19:52.012Z,951.76
2022-12-04T00:20:51.698Z,951.83
2022-12-04T00:21:51.912Z,951.79
2022-12-04T00:22:51.669Z,951.79
2022-12-04T00:23:51.905Z,951.78
2022-12-04T00:24:51.676Z,951.77
2022-12-04T00:25:51.689Z,951.77
2022-12-04T00:26:51.608Z,951.77
2022-12-04T00:27:51.653Z,951.77
2022-12-04T00:28:51.595Z,951.80
2022-12-04T00:29:51.920Z,951.75
2022-12-04T00:30:51.580Z,951.74
2022-12-04T00:31:51.682Z,951.73
2022-12-04T00:32:51.555Z,951.71
2022-12-04T00:33:51.553Z,951.71
2022-12-04T00:34:51.514Z,951.72
2022-12-04T00:35:51.718Z,951.70
2022-12-04T00:36:51.494Z,951.73
2022-12-04T00:37:51.509Z,951.71
2022-12-04T00:38:51.478Z,951.71
2022-12-04T00:39:51.561Z,951.69
2022-12-04T00:40:51.429Z,951.72
2022-12-04T00:41:51.566Z,951.72
2022-12-04T00:42:51.404Z,951.71
2022-12-04T00:43:51.426Z,951.78
2022-12-04T00:44:51.396Z,951.71
2022-12-04T00:45:51.441Z,951.72
2022-12-04T00:46:51.342Z,951.78
2022-12-04T00:47:51.626Z,951.80
2022-12-04T00:48:51.321Z,951.80
2022-12-04T00:49:51.319Z,951.80
2022-12-04T00:50:51.300Z,951.81
2022-12-04T00:51:51.776Z,951.78
2022-12-04T00:52:51.262Z,951.80
2022-12-04T00:53:51.477Z,951.80
2022-12-04T00:54:51.240Z,951.74
2022-12-04T00:55:51.259Z,951.69
2022-12-04T00:56:51.233Z,951.67
2022-12-04T00:57:53.690Z,951.72
2022-12-04T00:58:52.206Z,951.72
2022-12-04T00:59:51.270Z,951.73
2022-12-04T01:00:51.201Z,951.75
2022-12-04T01:01:51.177Z,951.73
2022-12-04T01:02:51.244Z,951.76
2022-12-04T01:03:51.180Z,951.80
2022-12-04T01:04:51.340Z,951.78
2022-12-04T01:05:51.238Z,951.77
2022-12-04T01:06:51.144Z,951.73
2022-12-04T01:07:51.149Z,951.79
2022-12-04T01:08:51.039Z,951.82
2022-12-04T01:09:51.111Z,951.82
2022-12-04T01:10:51.061Z,951.77
2022-12-04T01:11:51.264Z,951.77
2022-12-04T01:12:50.999Z,951.74
2022-12-04T01:13:50.991Z,951.75
2022-12-04T01:14:51.001Z,951.80
2022-12-04T01:15:50.980Z,951.81
2022-12-04T01:16:51.145Z,951.82
2022-12-04T01:17:51.143Z,951.83
2022-12-04T01:18:50.933Z,951.81
2022-12-04T01:19:51.834Z,951.78
2022-12-04T01:20:50.883Z,951.73
2022-12-04T01:21:50.895Z,951.72
2022-12-04T01:22:50.898Z,951.77
2022-12-04T01:23:50.931Z,951.76
2022-12-04T01:24:51.122Z,951.74
2022-12-04T01:25:50.850Z,951.75
2022-12-04T01:26:50.813Z,951.74
2022-12-04T01:27:50.829Z,951.72
2022-12-04T01:28:50.847Z,951.71
2022-12-04T01:29:51.126Z,951.68
2022-12-04T01:30:50.754Z,951.69
2022-12-04T01:31:50.795Z,951.73
2022-12-04T01:32:50.712Z,951.71
2022-12-04T01:33:50.730Z,951.68
2022-12-04T01:34:50.726Z,951.67
2022-12-04T01:35:51.347Z,951.71
2022-12-04T01:36:50.656Z,951.72
2022-12-04T01:37:50.663Z,951.72
2022-12-04T01:38:50.612Z,951.71
2022-12-04T01:39:50.661Z,951.68
2022-12-04T01:40:50.624Z,951.65
2022-12-04T01:41:50.693Z,951.63
2022-12-04T01:42:50.568Z,951.57
2022-12-04T01:43:50.572Z,951.62
2022-12-04T01:44:50.532Z,951.63
2022-12-04T01:45:50.671Z,951.67
2022-12-04T01:46:50.545Z,951.63
2022-12-04T01:47:50.605Z,951.65
2022-12-04T01:48:50.505Z,951.69
2022-12-04T01:49:50.501Z,951.67
2022-12-04T01:50:50.467Z,951.66
2022-12-04T01:51:50.741Z,951.64
2022-12-04T01:52:50.477Z,951.60
2022-12-04T01:53:50.448Z,951.58
2022-12-04T01:54:50.429Z,951.62
2022-12-04T01:55:50.422Z,951.68
2022-12-04T01:56:50.381Z,951.68
2022-12-04T01:57:50.474Z,951.66
2022-12-04T01:58:50.471Z,951.67
2022-12-04T01:59:50.381Z,951.65
2022-12-04T02:00:51.814Z,951.65
2022-12-04T02:01:50.477Z,951.68
2022-12-04T02:02:51.084Z,951.66
2022-12-04T02:03:50.668Z,951.64
2022-12-04T02:04:50.462Z,951.66
2022-12-04T02:05:50.442Z,951.67
2022-12-04T02:06:50.313Z,951.66
2022-12-04T02:07:50.464Z,951.62
2022-12-04T02:08:50.343Z,951.62
2022-12-04T02:09:50.531Z,951.66
2022-12-04T02:10:50.799Z,951.59
2022-12-04T02:11:50.985Z,951.59
2022-12-04T02:12:50.475Z,951.60
2022-12-04T02:13:50.550Z,951.57
2022-12-04T02:14:50.171Z,951.53
2022-12-04T02:15:50.409Z,951.53
2022-12-04T02:16:50.759Z,951.58
2022-12-04T02:17:50.492Z,951.61
2022-12-04T02:18:50.223Z,951.57
2022-12-04T02:19:50.917Z,951.59
2022-12-04T02:20:50.667Z,951.53
2022-12-04T02:21:50.892Z,951.55
2022-12-04T02:22:50.245Z,951.50
2022-12-04T02:23:50.227Z,951.46
2022-12-04T02:24:50.545Z,951.49
2022-12-04T02:25:50.031Z,951.46
2022-12-04T02:26:50.134Z,951.41
2022-12-04T02:27:49.973Z,951.44
2022-12-04T02:28:49.978Z,951.42
2022-12-04T02:29:49.947Z,951.35
2022-12-04T02:30:49.969Z,951.38
2022-12-04T02:31:49.934Z,951.41
2022-12-04T02:32:49.965Z,951.43
2022-12-04T02:33:49.883Z,951.52
2022-12-04T02:34:49.921Z,951.48
2022-12-04T02:35:49.878Z,951.51
2022-12-04T02:36:49.831Z,951.52
2022-12-04T02:37:49.835Z,951.48
2022-12-04T02:38:50.153Z,951.52
2022-12-04T02:39:49.827Z,951.54
2022-12-04T02:40:49.858Z,951.51
2022-12-04T02:41:49.794Z,951.51
2022-12-04T02:42:49.741Z,951.52
2022-12-04T02:43:49.752Z,951.54
2022-12-04T02:44:49.793Z,951.54
2022-12-04T02:45:49.762Z,951.52
2022-12-04T02:46:49.761Z,951.57
2022-12-04T02:47:49.702Z,951.62
2022-12-04T02:48:49.675Z,951.64
2022-12-04T02:49:49.674Z,951.64
2022-12-04T02:50:49.705Z,951.64
2022-12-04T02:51:49.647Z,951.62
2022-12-04T02:52:49.681Z,951.61
2022-12-04T02:53:49.655Z,951.62
2022-12-04T02:54:49.582Z,951.67
2022-12-04T02:55:49.607Z,951.65
2022-12-04T02:56:49.780Z,951.67
2022-12-04T02:57:49.558Z,951.58
2022-12-04T02:58:49.557Z,951.60
2022-12-04T02:59:49.540Z,951.62
2022-12-04T03:00:51.002Z,951.62
2022-12-04T03:01:49.546Z,951.62
2022-12-04T03:02:49.617Z,951.64
2022-12-04T03:03:49.485Z,951.59
2022-12-04T03:04:49.469Z,951.63
2022-12-04T03:05:49.478Z,951.64
2022-12-04T03:06:49.406Z,951.60
2022-12-04T03:07:49.469Z,951.54
2022-12-04T03:08:49.616Z,951.57
2022-12-04T03:09:49.392Z,951.64
2022-12-04T03:10:50.882Z,951.59
2022-12-04T03:11:49.384Z,951.60
2022-12-04T03:12:49.332Z,951.57
2022-12-04T03:13:49.364Z,951.57
2022-12-04T03:14:49.512Z,951.55
2022-12-04T03:15:49.409Z,951.49
2022-12-04T03:16:49.422Z,951.45
2022-12-04T03:17:49.291Z,951.44
2022-12-04T03:18:49.257Z,951.47
2022-12-04T03:19:49.252Z,951.48
2022-12-04T03:20:49.581Z,951.45
2022-12-04T03:21:49.216Z,951.44
2022-12-04T03:22:49.215Z,951.46
2022-12-04T03:23:49.211Z,951.42
2022-12-04T03:24:49.175Z,951.39
2022-12-04T03:25:49.173Z,951.36
2022-12-04T03:26:49.236Z,951.39
2022-12-04T03:27:49.165Z,951.46
2022-12-04T03:28:49.202Z,951.43
2022-12-04T03:29:49.116Z,951.43
2022-12-04T03:30:49.101Z,951.40
2022-12-04T03:31:49.089Z,951.40
2022-12-04T03:32:49.253Z,951.46
2022-12-04T03:33:49.068Z,951.42
2022-12-04T03:34:49.073Z,951.35
2022-12-04T03:35:49.033Z,951.34
2022-12-04T03:36:49.001Z,951.40
2022-12-04T03:37:48.998Z,951.43
2022-12-04T03:38:49.056Z,951.44
2022-12-04T03:39:48.969Z,951.47
2022-12-04T03:40:49.012Z,951.44
2022-12-04T03:41:50.111Z,951.48
2022-12-04T03:42:48.949Z,951.50
2022-12-04T03:43:48.893Z,951.46
2022-12-04T03:44:49.035Z,951.47
2022-12-04T03:45:48.929Z,951.49
2022-12-04T03:46:48.917Z,951.46
2022-12-04T03:47:48.848Z,951.42
2022-12-04T03:48:48.849Z,951.48
2022-12-04T03:49:48.811Z,951.37
2022-12-04T03:50:49.161Z,951.31
2022-12-04T03:51:48.772Z,951.37
2022-12-04T03:52:48.832Z,951.32
2022-12-04T03:53:48.769Z,951.44
2022-12-04T03:54:48.774Z,951.30
2022-12-04T03:55:48.727Z,951.36
2022-12-04T03:56:48.813Z,951.36
2022-12-04T03:57:48.697Z,951.31
2022-12-04T03:58:48.746Z,951.39
2022-12-04T03:59:53.935Z,951.43
2022-12-04T04:00:49.691Z,951.40
2022-12-04T04:01:48.754Z,951.39
2022-12-04T04:02:48.895Z,951.42
2022-12-04T04:03:48.622Z,951.42
2022-12-04T04:04:48.666Z,951.47
2022-12-04T04:05:48.599Z,951.44
2022-12-04T04:06:48.603Z,951.47
2022-12-04T04:07:48.698Z,951.49
2022-12-04T04:08:48.697Z,951.51
2022-12-04T04:09:48.543Z,951.46
2022-12-04T04:10:48.588Z,951.39
2022-12-04T04:11:48.510Z,951.34
2022-12-04T04:12:48.555Z,951.32
2022-12-04T04:13:48.484Z,951.35
2022-12-04T04:14:48.651Z,951.41
2022-12-04T04:15:48.478Z,951.40
2022-12-04T04:16:48.503Z,951.40
2022-12-04T04:17:48.430Z,951.42
2022-12-04T04:18:48.442Z,951.38
2022-12-04T04:19:48.403Z,951.36
2022-12-04T04:20:48.608Z,951.35
2022-12-04T04:21:48.382Z,951.29
2022-12-04T04:22:54.471Z,951.29
2022-12-04T04:23:49.368Z,951.23
2022-12-04T04:24:48.346Z,951.24
2022-12-04T04:25:48.315Z,951.17
2022-12-04T04:26:48.467Z,951.16
2022-12-04T04:27:48.296Z,951.14
2022-12-04T04:28:48.331Z,951.14
2022-12-04T04:29:52.611Z,951.18
2022-12-04T04:30:48.356Z,951.18
2022-12-04T04:31:48.228Z,951.19
2022-12-04T04:32:48.322Z,951.19
2022-12-04T04:33:48.209Z,951.20
2022-12-04T04:34:48.287Z,951.24
2022-12-04T04:35:48.170Z,951.24
2022-12-04T04:36:48.186Z,951.24
2022-12-04T04:37:48.151Z,951.23
2022-12-04T04:38:48.242Z,951.27
2022-12-04T04:39:48.136Z,951.26
2022-12-04T04:40:48.179Z,951.25
2022-12-04T04:41:48.098Z,951.27
2022-12-04T04:42:48.103Z,951.35
2022-12-04T04:43:48.066Z,951.28
2022-12-04T04:44:48.159Z,951.30
2022-12-04T04:45:48.026Z,951.33
2022-12-04T04:46:48.142Z,951.37
2022-12-04T04:47:48.008Z,951.35
2022-12-04T04:48:48.017Z,951.31
2022-12-04T04:49:47.988Z,951.30
2022-12-04T04:50:48.193Z,951.28
2022-12-04T04:51:47.951Z,951.25
2022-12-04T04:52:48.001Z,951.32
2022-12-04T04:53:47.928Z,951.38
2022-12-04T04:54:47.956Z,951.40
2022-12-04T04:55:47.892Z,951.41
2022-12-04T04:56:48.037Z,951.43
2022-12-04T04:57:47.878Z,951.41
2022-12-04T04:58:47.922Z,951.39
2022-12-04T04:59:47.841Z,951.38
2022-12-04T05:00:47.870Z,951.32
2022-12-04T05:01:47.847Z,951.31
2022-12-04T05:02:48.002Z,951.27
2022-12-04T05:03:47.789Z,951.27
2022-12-04T05:04:47.833Z,951.19
2022-12-04T05:05:47.760Z,951.23
2022-12-04T05:06:47.774Z,951.14
2022-12-04T05:07:47.753Z,951.14
2022-12-04T05:08:47.887Z,951.20
2022-12-04T05:09:47.710Z,951.26
2022-12-04T05:10:47.786Z,951.30
2022-12-04T05:11:47.676Z,951.23
2022-12-04T05:12:47.682Z,951.18
2022-12-04T05:13:47.660Z,951.19
2022-12-04T05:14:47.825Z,951.24
2022-12-04T05:15:47.666Z,951.29
2022-12-04T05:16:47.669Z,951.28
2022-12-04T05:17:47.620Z,951.33
2022-12-04T05:18:47.621Z,951.36
2022-12-04T05:19:47.561Z,951.40
2022-12-04T05:20:47.779Z,951.40
2022-12-04T05:21:47.540Z,951.31
2022-12-04T05:22:47.617Z,951.40
2022-12-04T05:23:47.527Z,951.40
2022-12-04T05:24:47.539Z,951.38
2022-12-04T05:25:47.482Z,951.41
2022-12-04T05:26:47.583Z,951.38
2022-12-04T05:27:47.468Z,951.42
2022-12-04T05:28:47.864Z,951.40
2022-12-04T05:29:47.436Z,951.44
2022-12-04T05:30:47.517Z,951.42
2022-12-04T05:31:47.527Z,951.42
2022-12-04T05:32:48.330Z,951.39
2022-12-04T05:33:47.400Z,951.33
2022-12-04T05:34:47.462Z,951.31
2022-12-04T05:35:47.358Z,951.28
2022-12-04T05:36:47.442Z,951.29
2022-12-04T05:37:47.521Z,951.28
2022-12-04T05:38:47.380Z,951.33
2022-12-04T05:39:47.420Z,951.36
2022-12-04T05:40:47.443Z,951.32
2022-12-04T05:41:47.297Z,951.32
2022-12-04T05:42:47.370Z,951.35
2022-12-04T05:43:47.443Z,951.37
2022-12-04T05:44:48.136Z,951.36
2022-12-04T05:45:47.246Z,951.45
2022-12-04T05:46:47.365Z,951.46
2022-12-04T05:47:47.468Z,951.48
2022-12-04T05:48:47.237Z,951.49
2022-12-04T05:49:47.323Z,951.47
2022-12-04T05:50:47.211Z,951.46
2022-12-04T05:51:47.172Z,951.46
2022-12-04T05:52:47.273Z,951.49
2022-12-04T05:53:47.133Z,951.45
2022-12-04T05:54:47.916Z,951.47
2022-12-04T05:55:47.189Z,951.45
2022-12-04T05:56:47.189Z,951.43
2022-12-04T05:57:47.112Z,951.41
2022-12-04T05:58:47.197Z,951.46
2022-12-04T05:59:47.097Z,951.40
2022-12-04T06:00:47.271Z,951.41
2022-12-04T06:01:47.138Z,951.43
2022-12-04T06:02:47.120Z,951.42
2022-12-04T06:03:47.110Z,951.41
2022-12-04T06:04:47.118Z,951.40
2022-12-04T06:05:47.039Z,951.34
2022-12-04T06:06:47.166Z,951.39
2022-12-04T06:07:47.072Z,951.36
2022-12-04T06:08:47.745Z,951.42
2022-12-04T06:09:46.957Z,951.41
2022-12-04T06:10:48.170Z,951.44
2022-12-04T06:11:46.989Z,951.45
2022-12-04T06:12:46.999Z,951.43
2022-12-04T06:13:46.948Z,951.41
2022-12-04T06:14:46.911Z,951.34
2022-12-04T06:15:46.933Z,951.39
2022-12-04T06:16:46.991Z,951.44
2022-12-04T06:17:46.843Z,951.47
2022-12-04T06:18:46.948Z,951.43
2022-12-04T06:19:46.859Z,951.44
2022-12-04T06:20:47.104Z,951.44
2022-12-04T06:21:46.731Z,951.49
2022-12-04T06:22:46.891Z,951.48
2022-12-04T06:23:46.816Z,951.53
2022-12-04T06:24:46.938Z,951.52
2022-12-04T06:25:46.695Z,951.58
2022-12-04T06:27:11.018Z,951.57
2022-12-04T06:27:47.654Z,951.56
2022-12-04T06:28:46.724Z,951.59
2022-12-04T06:29:46.649Z,951.64
2022-12-04T06:30:46.768Z,951.61
2022-12-04T06:31:46.599Z,951.64
2022-12-04T06:32:46.588Z,951.64
2022-12-04T06:33:46.693Z,951.62
2022-12-04T06:34:46.564Z,951.60
2022-12-04T06:35:46.519Z,951.58
2022-12-04T06:36:46.624Z,951.59
2022-12-04T06:37:46.510Z,951.61
2022-12-04T06:38:46.497Z,951.67
2022-12-04T06:39:46.497Z,951.62
2022-12-04T06:40:46.468Z,951.64
2022-12-04T06:41:46.464Z,951.64
2022-12-04T06:42:46.579Z,951.64
2022-12-04T06:43:46.438Z,951.66
2022-12-04T06:44:46.446Z,951.68
2022-12-04T06:45:46.526Z,951.65
2022-12-04T06:46:47.351Z,951.69
2022-12-04T06:47:46.411Z,951.71
2022-12-04T06:48:46.846Z,951.67
2022-12-04T06:49:46.356Z,951.70
2022-12-04T06:50:46.408Z,951.65
2022-12-04T06:51:46.415Z,951.71
2022-12-04T06:52:46.399Z,951.71
2022-12-04T06:53:46.447Z,951.71
2022-12-04T06:54:46.477Z,951.77
2022-12-04T06:55:46.244Z,951.74
2022-12-04T06:56:46.291Z,951.82
2022-12-04T06:57:46.247Z,951.79
2022-12-04T06:58:46.307Z,951.81
2022-12-04T06:59:46.284Z,951.76
2022-12-04T07:00:46.349Z,951.74
2022-12-04T07:01:46.265Z,951.68
2022-12-04T07:02:46.369Z,951.73
2022-12-04T07:03:51.038Z,951.76
2022-12-04T07:04:47.190Z,951.82
2022-12-04T07:05:46.286Z,951.79
2022-12-04T07:06:46.396Z,951.85
2022-12-04T07:07:46.333Z,951.84
2022-12-04T07:08:46.280Z,951.85
2022-12-04T07:09:46.375Z,951.86
2022-12-04T07:10:46.197Z,951.86
2022-12-04T07:11:46.198Z,951.88
2022-12-04T07:12:46.433Z,951.89
2022-12-04T07:13:46.364Z,951.82
2022-12-04T07:14:46.293Z,951.84
2022-12-04T07:15:46.262Z,951.87
2022-12-04T07:16:46.304Z,951.82
2022-12-04T07:17:46.255Z,951.80
2022-12-04T07:18:46.275Z,951.82
2022-12-04T07:19:46.330Z,951.80
2022-12-04T07:20:46.261Z,951.80
2022-12-04T07:21:46.275Z,951.86
2022-12-04T07:22:45.951Z,951.81
2022-12-04T07:23:46.239Z,951.81
2022-12-04T07:24:46.245Z,951.77
2022-12-04T07:25:46.217Z,951.81
2022-12-04T07:26:45.977Z,951.79
2022-12-04T07:27:45.977Z,951.77
2022-12-04T07:28:46.265Z,951.82
2022-12-04T07:29:45.766Z,951.79
2022-12-04T07:30:46.878Z,951.74
2022-12-04T07:31:45.824Z,951.76
2022-12-04T07:32:45.768Z,951.75
2022-12-04T07:33:45.733Z,951.73
2022-12-04T07:34:45.754Z,951.76
2022-12-04T07:35:45.673Z,951.78
2022-12-04T07:36:46.440Z,951.76
2022-12-04T07:37:45.654Z,951.75
2022-12-04T07:38:45.669Z,951.74
2022-12-04T07:39:45.810Z,951.78
2022-12-04T07:40:45.644Z,951.75
2022-12-04T07:41:45.607Z,951.79
2022-12-04T07:42:45.692Z,951.79
2022-12-04T07:43:45.566Z,951.81
2022-12-04T07:44:45.592Z,951.84
2022-12-04T07:45:45.653Z,951.85
2022-12-04T07:46:45.622Z,951.82
2022-12-04T07:47:45.520Z,951.89
2022-12-04T07:48:45.704Z,951.97
2022-12-04T07:49:45.502Z,951.97
2022-12-04T07:50:45.500Z,951.97
2022-12-04T07:51:45.824Z,951.98
2022-12-04T07:52:45.468Z,951.98
2022-12-04T07:53:45.453Z,951.93
2022-12-04T07:54:46.414Z,951.98
2022-12-04T07:55:45.449Z,951.98
2022-12-04T07:56:45.538Z,951.94
2022-12-04T07:57:45.441Z,951.88
2022-12-04T07:58:45.405Z,951.84
2022-12-04T07:59:45.367Z,951.83
2022-12-04T08:00:45.497Z,951.78
2022-12-04T08:01:45.486Z,951.84
2022-12-04T08:02:45.312Z,951.85
2022-12-04T08:03:48.127Z,951.85
2022-12-04T08:04:45.319Z,951.94
2022-12-04T08:05:45.300Z,951.92
2022-12-04T08:06:45.334Z,951.93
2022-12-04T08:07:45.308Z,951.91
2022-12-04T08:08:45.225Z,951.94
2022-12-04T08:09:45.283Z,951.93
2022-12-04T08:10:45.205Z,951.93
2022-12-04T08:11:45.295Z,951.93
2022-12-04T08:12:45.364Z,951.90
2022-12-04T08:13:45.191Z,951.82
2022-12-04T08:14:45.166Z,951.82
2022-12-04T08:15:45.234Z,951.80
2022-12-04T08:16:48.339Z,951.84
2022-12-04T08:17:46.246Z,951.85
2022-12-04T08:18:45.171Z,951.83
2022-12-04T08:19:45.098Z,951.80
2022-12-04T08:20:45.066Z,951.81
2022-12-04T08:21:45.119Z,951.89
2022-12-04T08:22:45.036Z,951.81
2022-12-04T08:23:45.043Z,951.89
2022-12-04T08:24:45.209Z,951.89
2022-12-04T08:25:45.070Z,951.85
2022-12-04T08:26:44.983Z,951.84
2022-12-04T08:27:47.507Z,951.88
2022-12-04T08:28:44.964Z,951.86
2022-12-04T08:29:45.038Z,951.89
2022-12-04T08:30:45.097Z,951.94
2022-12-04T08:31:45.771Z,951.92
2022-12-04T08:32:44.956Z,951.96
2022-12-04T08:33:44.996Z,951.94
2022-12-04T08:34:44.939Z,951.93
2022-12-04T08:35:44.954Z,951.96
2022-12-04T08:36:45.015Z,951.98
2022-12-04T08:37:44.885Z,952.02
2022-12-04T08:38:44.902Z,951.97
2022-12-04T08:39:44.955Z,951.98
2022-12-04T08:40:44.851Z,951.98
2022-12-04T08:41:44.862Z,952.03
2022-12-04T08:42:44.844Z,952.03
2022-12-04T08:43:46.796Z,952.02
2022-12-04T08:44:44.724Z,952.04
2022-12-04T08:45:45.153Z,952.07
2022-12-04T08:46:44.863Z,952.09
2022-12-04T08:47:48.002Z,952.13
2022-12-04T08:48:45.865Z,952.12
2022-12-04T08:49:44.683Z,952.14
2022-12-04T08:50:44.643Z,952.13
2022-12-04T08:51:44.731Z,952.10
2022-12-04T08:52:44.643Z,952.12
2022-12-04T08:53:44.650Z,952.07
2022-12-04T08:54:44.733Z,952.08
2022-12-04T08:55:44.594Z,952.05
2022-12-04T08:56:44.569Z,952.02
2022-12-04T08:57:44.720Z,952.00
2022-12-04T08:58:44.534Z,951.99
2022-12-04T08:59:44.560Z,952.00
2022-12-04T09:00:44.705Z,952.01
2022-12-04T09:01:44.621Z,951.98
2022-12-04T09:02:44.481Z,952.00
2022-12-04T09:03:44.528Z,952.04
2022-12-04T09:04:44.517Z,952.03
2022-12-04T09:05:44.468Z,952.03
2022-12-04T09:06:44.588Z,952.08
2022-12-04T09:07:44.456Z,952.05
2022-12-04T09:08:44.556Z,952.04
2022-12-04T09:09:48.242Z,952.11
2022-12-04T09:10:44.375Z,952.15
2022-12-04T09:11:44.375Z,952.18
2022-12-04T09:12:44.354Z,952.18
2022-12-04T09:13:44.369Z,952.19
2022-12-04T09:14:44.478Z,952.18
2022-12-04T09:15:44.423Z,952.16
2022-12-04T09:16:44.294Z,952.16
2022-12-04T09:17:44.296Z,952.17
2022-12-04T09:18:44.262Z,952.22
2022-12-04T09:19:44.271Z,952.24
2022-12-04T09:20:44.415Z,952.21
2022-12-04T09:21:44.296Z,952.23
2022-12-04T09:23:02.779Z,952.23
2022-12-04T09:23:45.224Z,952.21
2022-12-04T09:24:44.197Z,952.21
2022-12-04T09:25:44.189Z,952.24
2022-12-04T09:26:44.311Z,952.24
2022-12-04T09:27:44.237Z,952.25
2022-12-04T09:28:44.126Z,952.29
2022-12-04T09:29:44.131Z,952.26
2022-12-04T09:30:44.190Z,952.29
2022-12-04T09:31:44.206Z,952.28
2022-12-04T09:32:44.232Z,952.34
2022-12-04T09:33:44.199Z,952.29
2022-12-04T09:34:48.240Z,952.34
2022-12-04T09:35:45.104Z,952.26
2022-12-04T09:36:44.008Z,952.27
2022-12-04T09:37:44.027Z,952.31
2022-12-04T09:38:44.092Z,952.24
2022-12-04T09:39:44.039Z,952.29
2022-12-04T09:40:43.989Z,952.29
2022-12-04T09:41:43.957Z,952.35
2022-12-04T09:42:43.921Z,952.36
2022-12-04T09:43:43.931Z,952.33
2022-12-04T09:44:44.129Z,952.28
2022-12-04T09:45:43.945Z,952.30
2022-12-04T09:46:44.479Z,952.25
2022-12-04T09:47:43.913Z,952.23
2022-12-04T09:48:43.835Z,952.19
2022-12-04T09:49:43.864Z,952.21
2022-12-04T09:50:44.001Z,952.19
2022-12-04T09:51:43.991Z,952.18
2022-12-04T09:52:43.793Z,952.16
2022-12-04T09:53:43.816Z,952.12
2022-12-04T09:54:43.775Z,952.17
2022-12-04T09:55:43.775Z,952.18
2022-12-04T09:56:43.875Z,952.16
2022-12-04T09:57:43.788Z,952.15
2022-12-04T09:58:43.715Z,952.20
2022-12-04T09:59:43.722Z,952.18
2022-12-04T10:00:43.670Z,952.15
2022-12-04T10:01:43.685Z,952.20
2022-12-04T10:02:43.909Z,952.18
2022-12-04T10:03:43.905Z,952.17
2022-12-04T10:04:43.615Z,952.21
2022-12-04T10:05:43.633Z,952.16
2022-12-04T10:06:43.588Z,952.19
2022-12-04T10:07:43.720Z,952.15
2022-12-04T10:08:43.853Z,952.11
2022-12-04T10:09:43.631Z,952.15
2022-12-04T10:10:43.540Z,952.12
2022-12-04T10:11:43.567Z,952.09
2022-12-04T10:12:43.520Z,952.07
2022-12-04T10:13:43.520Z,952.07
2022-12-04T10:14:43.598Z,952.04
2022-12-04T10:15:43.569Z,952.08
2022-12-04T10:16:43.472Z,952.04
2022-12-04T10:17:43.471Z,952.08
2022-12-04T10:18:43.433Z,952.10
2022-12-04T10:19:43.453Z,952.06
2022-12-04T10:20:43.631Z,952.07
2022-12-04T10:21:43.452Z,952.04
2022-12-04T10:22:43.382Z,952.13
2022-12-04T10:23:43.404Z,952.08
2022-12-04T10:24:43.354Z,952.10
2022-12-04T10:25:43.358Z,952.08
2022-12-04T10:26:43.412Z,952.04
2022-12-04T10:27:43.373Z,952.06
2022-12-04T10:28:43.316Z,952.06
2022-12-04T10:29:43.310Z,952.06
2022-12-04T10:30:43.268Z,952.00
2022-12-04T10:31:43.335Z,952.04
2022-12-04T10:32:43.388Z,951.98
2022-12-04T10:33:43.375Z,952.00
2022-12-04T10:34:45.774Z,951.92
2022-12-04T10:35:43.229Z,951.95
2022-12-04T10:36:43.189Z,951.96
2022-12-04T10:37:43.201Z,951.91
2022-12-04T10:38:43.450Z,951.90
2022-12-04T10:39:43.206Z,951.91
2022-12-04T10:40:43.142Z,951.86
2022-12-04T10:41:43.152Z,951.83
2022-12-04T10:42:43.092Z,951.82
2022-12-04T10:43:43.107Z,951.82
2022-12-04T10:44:43.157Z,951.80
2022-12-04T10:45:43.130Z,951.75
2022-12-04T10:46:45.952Z,951.70
2022-12-04T10:47:43.060Z,951.70
2022-12-04T10:48:43.029Z,951.72
2022-12-04T10:49:43.033Z,951.74
2022-12-04T10:50:43.079Z,951.73
2022-12-04T10:51:43.049Z,951.71
2022-12-04T10:52:42.953Z,951.66
2022-12-04T10:53:42.996Z,951.66
2022-12-04T10:54:42.928Z,951.70
2022-12-04T10:55:42.965Z,951.65
2022-12-04T10:56:43.065Z,951.63
2022-12-04T10:57:43.095Z,951.64
2022-12-04T10:58:42.873Z,951.60
2022-12-04T10:59:42.883Z,951.55
2022-12-04T11:00:42.841Z,951.55
2022-12-04T11:01:42.906Z,951.51
2022-12-04T11:02:43.158Z,951.48
2022-12-04T11:03:42.930Z,951.43
2022-12-04T11:04:42.788Z,951.43
2022-12-04T11:05:42.964Z,951.42
2022-12-04T11:06:42.875Z,951.38
2022-12-04T11:07:42.838Z,951.31
2022-12-04T11:08:42.966Z,951.27
2022-12-04T11:09:42.790Z,951.27
2022-12-04T11:10:42.695Z,951.21
2022-12-04T11:11:42.720Z,951.26
2022-12-04T11:12:42.675Z,951.22
2022-12-04T11:13:42.694Z,951.23
2022-12-04T11:14:46.827Z,951.22
2022-12-04T11:15:42.759Z,951.25
2022-12-04T11:16:42.670Z,951.31
2022-12-04T11:17:42.636Z,951.37
2022-12-04T11:18:42.620Z,951.40
2022-12-04T11:19:42.628Z,951.41
2022-12-04T11:20:46.810Z,951.48
2022-12-04T11:21:43.522Z,951.53
2022-12-04T11:22:42.542Z,951.55
2022-12-04T11:23:42.557Z,951.53
2022-12-04T11:24:42.497Z,951.55
2022-12-04T11:25:42.535Z,951.45
2022-12-04T11:26:42.577Z,951.48
2022-12-04T11:27:42.581Z,951.46
2022-12-04T11:28:43.097Z,951.43
2022-12-04T11:29:42.473Z,951.45
2022-12-04T11:30:42.428Z,951.45
2022-12-04T11:31:42.579Z,951.42
2022-12-04T11:32:42.567Z,951.40
2022-12-04T11:33:42.487Z,951.37
2022-12-04T11:34:42.444Z,951.39
2022-12-04T11:35:42.414Z,951.41
2022-12-04T11:36:42.349Z,951.44
2022-12-04T11:37:45.495Z,951.48
2022-12-04T11:38:42.493Z,951.48
2022-12-04T11:39:42.353Z,951.46
2022-12-04T11:40:42.331Z,951.48
2022-12-04T11:41:42.348Z,951.46
2022-12-04T11:42:42.292Z,951.53
2022-12-04T11:43:42.335Z,951.58
2022-12-04T11:44:42.352Z,951.55
2022-12-04T11:45:42.389Z,951.57
2022-12-04T11:46:42.433Z,951.54
2022-12-04T11:47:42.219Z,951.55
2022-12-04T11:48:43.129Z,951.57
2022-12-04T11:49:43.958Z,951.57
2022-12-04T11:50:42.268Z,951.56
2022-12-04T11:51:42.276Z,951.58
2022-12-04T11:52:42.269Z,951.60
2022-12-04T11:53:42.372Z,951.54
2022-12-04T11:54:42.193Z,951.58
2022-12-04T11:55:42.234Z,951.59
2022-12-04T11:56:42.284Z,951.57
2022-12-04T11:57:43.156Z,951.53
2022-12-04T11:58:42.225Z,951.55
2022-12-04T11:59:42.215Z,951.52
2022-12-04T12:00:42.126Z,951.48
2022-12-04T12:01:42.951Z,951.51
2022-12-04T12:02:42.231Z,951.45
2022-12-04T12:03:42.213Z,951.39
2022-12-04T12:04:42.236Z,951.45
2022-12-04T12:05:42.268Z,951.44
2022-12-04T12:06:42.197Z,951.46
2022-12-04T12:07:45.302Z,951.44
2022-12-04T12:08:42.188Z,951.46
2022-12-04T12:09:42.012Z,951.43
2022-12-04T12:10:44.785Z,951.44
2022-12-04T12:11:41.978Z,951.42
2022-12-04T12:12:42.112Z,951.38
2022-12-04T12:13:42.179Z,951.35
2022-12-04T12:14:42.016Z,951.34
2022-12-04T12:15:42.015Z,951.38
2022-12-04T12:16:44.775Z,951.37
2022-12-04T12:17:42.742Z,951.35
2022-12-04T12:18:41.868Z,951.33
2022-12-04T12:19:42.014Z,951.36
2022-12-04T12:20:42.025Z,951.29
2022-12-04T12:21:41.997Z,951.29
2022-12-04T12:22:41.947Z,951.28
2022-12-04T12:23:42.149Z,951.22
2022-12-04T12:24:44.534Z,951.23
2022-12-04T12:25:42.239Z,951.23
2022-12-04T12:26:42.636Z,951.23
2022-12-04T12:27:41.927Z,951.19
2022-12-04T12:28:41.764Z,951.18